Time;durP1;ratioP1;P1;durP2;ratioP2;P2;SDS_P1;SDS_P2;PMS_P1;PMS_P2;Temp;Humidity;BMP_temperature;BMP_pressure;BME280_temperature;BME280_humidity;BME280_pressure;Samples;Min_cycle;Max_cycle;Signal;HPM_P1;HPM_P2
2022/11/19 00:01:19;;;;;;;0.32;0.30;;;6.30;99.90;;;;;;5066442;28;20435;-72
2022/11/19 00:03:47;;;;;;;0.20;0.20;;;6.30;99.90;;;;;;5062397;28;20419;-72
2022/11/19 00:06:20;;;;;;;0.15;0.15;;;6.30;99.90;;;;;;5071356;28;20485;-72
2022/11/19 00:08:47;;;;;;;0.50;0.50;;;6.30;99.90;;;;;;5058708;28;20432;-73
2022/11/19 00:14:11;;;;;;;0.30;0.30;;;6.30;99.90;;;;;;5066589;28;20431;-73
2022/11/19 00:16:38;;;;;;;0.30;0.30;;;6.30;99.90;;;;;;5067297;28;20829;-73
2022/11/19 00:19:05;;;;;;;1.02;0.55;;;6.30;99.90;;;;;;5070420;28;20440;-73
2022/11/19 00:21:32;;;;;;;1.90;0.90;;;6.30;99.90;;;;;;5063161;28;20428;-73
2022/11/19 00:23:58;;;;;;;0.70;0.70;;;6.30;99.90;;;;;;5071437;28;20424;-73
2022/11/19 00:26:25;;;;;;;0.40;0.40;;;6.30;99.90;;;;;;5068542;28;20508;-73
2022/11/19 00:28:53;;;;;;;0.30;0.30;;;6.30;99.90;;;;;;5067930;28;20437;-74
2022/11/19 00:31:20;;;;;;;0.30;0.30;;;6.30;99.90;;;;;;5066845;28;20446;-75
2022/11/19 00:33:49;;;;;;;0.65;0.55;;;6.20;99.90;;;;;;5067178;28;20915;-74
2022/11/19 00:36:16;;;;;;;0.40;0.40;;;6.20;99.90;;;;;;5063722;28;20419;-73
2022/11/19 00:38:43;;;;;;;0.40;0.40;;;6.30;99.90;;;;;;5064098;28;20454;-73
2022/11/19 00:41:11;;;;;;;0.68;0.68;;;6.30;99.90;;;;;;5061534;28;20439;-73
2022/11/19 00:43:46;;;;;;;0.20;0.20;;;6.30;99.90;;;;;;5064536;28;20540;-73
2022/11/19 00:46:22;;;;;;;0.60;0.60;;;6.30;99.90;;;;;;5058950;28;20494;-73
2022/11/19 00:48:51;;;;;;;0.40;0.40;;;6.40;99.90;;;;;;5057867;28;20909;-73
2022/11/19 00:51:19;;;;;;;0.40;0.40;;;6.30;99.90;;;;;;5061039;28;20881;-73
2022/11/19 00:53:46;;;;;;;0.40;0.40;;;6.30;99.90;;;;;;5065169;28;20459;-73
2022/11/19 00:56:16;;;;;;;0.80;0.50;;;6.30;99.90;;;;;;5064127;28;20431;-73
2022/11/19 00:58:43;;;;;;;0.57;0.57;;;6.30;94.10;;;;;;5059349;28;20431;-72
2022/11/19 01:01:12;;;;;;;0.60;0.60;;;6.10;73.30;;;;;;5055372;28;20424;-72
2022/11/19 01:03:40;;;;;;;0.30;0.30;;;6.00;47.90;;;;;;5057361;28;20431;-72
2022/11/19 01:06:08;;;;;;;0.50;0.50;;;6.00;33.40;;;;;;5065335;28;20424;-72
2022/11/19 01:08:35;;;;;;;1.30;0.88;;;5.90;25.60;;;;;;5062454;28;20425;-72
2022/11/19 01:11:24;;;;;;;0.65;0.65;;;5.80;21.50;;;;;;5058295;28;20436;-73
2022/11/19 01:13:51;;;;;;;0.55;0.55;;;5.80;16.00;;;;;;5062491;28;20538;-72
2022/11/19 01:16:39;;;;;;;0.70;0.70;;;5.70;9.80;;;;;;5065821;28;20433;-72
2022/11/19 01:19:07;;;;;;;0.40;0.40;;;5.70;1.00;;;;;;5060562;28;20428;-72
2022/11/19 01:21:35;;;;;;;1.10;0.75;;;5.60;1.00;;;;;;5058869;28;20528;-72
2022/11/19 01:24:04;;;;;;;2.20;0.80;;;5.50;1.00;;;;;;5055578;28;20429;-73
2022/11/19 01:26:31;;;;;;;0.50;0.50;;;5.50;1.00;;;;;;5070157;28;20431;-73
2022/11/19 01:28:58;;;;;;;0.60;0.60;;;5.40;1.00;;;;;;5056239;28;20531;-73
2022/11/19 01:31:27;;;;;;;0.50;0.50;;;5.40;1.00;;;;;;5060840;28;20984;-73
2022/11/19 01:33:54;;;;;;;0.52;0.52;;;5.30;1.00;;;;;;5075638;28;20430;-73
2022/11/19 01:36:23;;;;;;;0.68;0.68;;;5.20;1.00;;;;;;5065600;28;20478;-73
2022/11/19 01:38:50;;;;;;;0.40;0.40;;;5.20;1.00;;;;;;5062815;28;20896;-73
2022/11/19 01:41:25;;;;;;;0.77;0.77;;;5.10;1.00;;;;;;5060983;28;20440;-73
2022/11/19 01:43:53;;;;;;;0.40;0.40;;;5.10;1.00;;;;;;5062224;28;20451;-73
2022/11/19 01:46:23;;;;;;;1.10;0.50;;;5.10;1.00;;;;;;5067129;28;20485;-75
2022/11/19 01:48:54;;;;;;;0.65;0.65;;;5.00;1.00;;;;;;5057352;28;20433;-73
2022/11/19 01:51:32;;;;;;;0.38;0.38;;;5.00;1.00;;;;;;5058643;28;20946;-73
2022/11/19 01:54:07;;;;;;;0.50;0.50;;;5.00;1.00;;;;;;5067049;28;20434;-73
2022/11/19 01:56:35;;;;;;;2.28;1.17;;;5.00;1.00;;;;;;5058060;28;20421;-73
2022/11/19 01:59:06;;;;;;;0.63;0.60;;;5.00;1.00;;;;;;5059374;28;20429;-72
2022/11/19 02:01:33;;;;;;;0.30;0.30;;;5.00;1.00;;;;;;5050677;28;20429;-74
2022/11/19 02:04:02;;;;;;;12.20;0.70;;;5.00;1.00;;;;;;5064688;28;20428;-73
2022/11/19 02:06:29;;;;;;;0.40;0.40;;;4.90;1.00;;;;;;5057618;28;20427;-73
2022/11/19 02:08:56;;;;;;;2.50;1.10;;;4.90;1.00;;;;;;5051357;28;20433;-73
2022/11/19 02:11:42;;;;;;;0.40;0.40;;;4.90;1.00;;;;;;5057448;28;20507;-73
2022/11/19 02:14:17;;;;;;;0.83;0.83;;;4.80;1.00;;;;;;5057200;28;20426;-73
2022/11/19 02:17:08;;;;;;;0.88;0.88;;;4.70;1.00;;;;;;5060098;28;20438;-73
2022/11/19 02:20:12;;;;;;;1.90;0.90;;;4.60;1.00;;;;;;5062448;28;21023;-73
2022/11/19 02:23:07;;;;;;;1.10;0.80;;;4.60;1.00;;;;;;5053137;28;20948;-73
2022/11/19 02:26:06;;;;;;;1.00;1.00;;;4.50;1.00;;;;;;5050504;28;20429;-73
2022/11/19 02:28:57;;;;;;;0.60;0.60;;;4.50;1.00;;;;;;5048287;28;20427;-74
2022/11/19 02:31:52;;;;;;;0.40;0.40;;;4.40;1.00;;;;;;5055353;28;20826;-74
2022/11/19 02:34:31;;;;;;;0.60;0.60;;;4.40;1.00;;;;;;5060534;28;20949;-74
2022/11/19 02:37:07;;;;;;;1.50;0.68;;;4.40;99.90;;;;;;5060224;28;20437;-73
2022/11/19 02:39:46;;;;;;;2.22;1.00;;;4.30;1.00;;;;;;5053056;28;20955;-73
2022/11/19 02:42:43;;;;;;;0.50;0.43;;;4.30;1.00;;;;;;5061870;28;20423;-73
2022/11/19 02:45:23;;;;;;;0.70;0.70;;;4.30;99.90;;;;;;5057196;28;20459;-73
2022/11/19 02:47:53;;;;;;;0.60;0.60;;;4.30;99.90;;;;;;5063185;28;20489;-73
2022/11/19 02:50:42;;;;;;;0.52;0.52;;;4.20;99.90;;;;;;5062472;28;20485;-73
2022/11/19 02:53:09;;;;;;;0.57;0.57;;;4.10;99.90;;;;;;5048468;28;20507;-73
2022/11/19 02:55:37;;;;;;;0.88;0.88;;;4.10;99.90;;;;;;5058726;28;20431;-73
2022/11/19 03:04:28;;;;;;;1.40;0.88;;;4.00;99.90;;;;;;5065182;28;20423;-73
2022/11/19 03:06:31;;;;;;;1.05;0.65;;;3.90;99.90;;;;;;5062456;28;20463;-74
2022/11/19 03:08:58;;;;;;;1.10;0.88;;;3.90;99.90;;;;;;5063973;28;20505;-74
2022/11/19 03:11:27;;;;;;;0.98;0.98;;;3.80;99.90;;;;;;5066196;28;20427;-73
2022/11/19 03:17:04;;;;;;;0.60;0.60;;;3.70;25.60;;;;;;5070889;28;20431;-73
2022/11/19 03:19:54;;;;;;;1.10;0.55;;;3.60;1.00;;;;;;5060323;28;20749;-73
2022/11/19 03:22:28;;;;;;;0.93;0.93;;;3.60;1.00;;;;;;5064891;28;20643;-73
2022/11/19 03:25:21;;;;;;;1.02;0.63;;;3.50;1.00;;;;;;5064631;28;20442;-73
2022/11/19 03:27:51;;;;;;;0.52;0.52;;;3.40;26.70;;;;;;5059138;28;20508;-74
2022/11/19 03:30:19;;;;;;;0.77;0.77;;;3.40;69.40;;;;;;5061431;28;20427;-73
2022/11/19 03:32:51;;;;;;;0.82;0.82;;;3.40;99.90;;;;;;5071786;28;20431;-73
2022/11/19 03:35:27;;;;;;;0.70;0.60;;;3.30;99.90;;;;;;5065622;28;20512;-73
2022/11/19 03:37:58;;;;;;;0.95;0.95;;;3.20;61.70;;;;;;5064916;28;20429;-73
2022/11/19 03:40:26;;;;;;;1.42;0.65;;;3.20;99.90;;;;;;5064910;28;20502;-72
2022/11/19 03:42:55;;;;;;;1.67;0.87;;;3.10;99.90;;;;;;5067328;28;21012;-71
2022/11/19 03:45:26;;;;;;;0.77;0.77;;;3.10;99.90;;;;;;5062276;28;21371;-71
2022/11/19 03:47:54;;;;;;;1.15;1.15;;;3.10;99.90;;;;;;5068968;28;20499;-71
2022/11/19 03:50:46;;;;;;;0.70;0.70;;;3.00;99.90;;;;;;5062857;28;20424;-71
2022/11/19 03:53:12;;;;;;;0.70;0.70;;;3.00;99.90;;;;;;5053771;28;20481;-70
2022/11/19 03:55:48;;;;;;;0.40;0.40;;;2.90;99.90;;;;;;5056949;28;20423;-71
2022/11/19 03:58:15;;;;;;;2.15;0.82;;;2.90;1.00;;;;;;5064516;28;20462;-71
2022/11/19 04:00:41;;;;;;;0.75;0.75;;;2.80;1.00;;;;;;5057312;28;20433;-71
2022/11/19 04:03:08;;;;;;;0.70;0.70;;;2.80;1.00;;;;;;5083454;28;20436;-72
2022/11/19 04:05:35;;;;;;;0.40;0.40;;;2.80;1.00;;;;;;5072559;28;20454;-72
2022/11/19 04:08:02;;;;;;;0.90;0.90;;;2.80;1.00;;;;;;5070753;28;20423;-72
2022/11/19 04:10:28;;;;;;;0.85;0.85;;;2.70;1.00;;;;;;5065397;28;20427;-70
2022/11/19 04:12:55;;;;;;;0.50;0.50;;;2.80;1.00;;;;;;5071793;28;20436;-71
2022/11/19 04:15:22;;;;;;;0.77;0.77;;;2.70;1.00;;;;;;5061974;28;20440;-71
2022/11/19 04:17:48;;;;;;;0.60;0.60;;;2.70;1.00;;;;;;5052061;28;20503;-70
2022/11/19 04:20:15;;;;;;;1.25;0.55;;;2.70;1.00;;;;;;5067543;28;20917;-71
2022/11/19 04:22:42;;;;;;;1.20;0.93;;;2.70;1.00;;;;;;5072011;28;20428;-71
2022/11/19 04:25:09;;;;;;;0.80;0.80;;;2.70;1.00;;;;;;5069783;28;20427;-71
2022/11/19 04:27:36;;;;;;;0.73;0.73;;;2.70;1.00;;;;;;5071970;28;20798;-71
2022/11/19 04:30:03;;;;;;;0.32;0.32;;;2.80;1.00;;;;;;5072014;28;20439;-71
2022/11/19 04:32:30;;;;;;;0.85;0.65;;;2.80;1.00;;;;;;5068855;28;20430;-71
2022/11/19 04:34:57;;;;;;;1.05;1.05;;;2.80;1.00;;;;;;5071401;28;20434;-71
2022/11/19 04:37:24;;;;;;;1.50;0.70;;;2.70;1.00;;;;;;5085734;28;20433;-71
2022/11/19 04:39:50;;;;;;;1.90;1.00;;;2.70;1.00;;;;;;5092027;28;20425;-71
2022/11/19 04:42:17;;;;;;;0.95;0.95;;;2.70;1.00;;;;;;5064976;28;20456;-71
2022/11/19 04:44:44;;;;;;;1.23;1.15;;;2.70;1.00;;;;;;5064621;28;20428;-71
2022/11/19 04:47:11;;;;;;;0.20;0.20;;;2.70;1.00;;;;;;5066485;28;20453;-71
2022/11/19 04:49:37;;;;;;;2.03;1.23;;;2.70;1.00;;;;;;5071236;28;20420;-71
2022/11/19 04:52:04;;;;;;;1.30;0.90;;;2.70;1.00;;;;;;5070415;28;20516;-72
2022/11/19 04:54:31;;;;;;;0.75;0.63;;;2.70;1.00;;;;;;5069958;28;20431;-72
2022/11/19 04:56:58;;;;;;;1.92;0.82;;;2.70;1.00;;;;;;5064008;28;20429;-72
2022/11/19 04:59:24;;;;;;;0.70;0.70;;;2.80;1.00;;;;;;5051489;28;20516;-72
2022/11/19 05:01:51;;;;;;;0.85;0.85;;;2.80;1.00;;;;;;5064727;28;20462;-72
2022/11/19 05:04:18;;;;;;;0.60;0.60;;;2.90;1.00;;;;;;5070499;28;20431;-71
2022/11/19 05:06:44;;;;;;;0.40;0.40;;;2.90;1.00;;;;;;5070957;28;20442;-71
2022/11/19 05:09:11;;;;;;;1.00;0.70;;;2.80;1.00;;;;;;5070859;28;20914;-71
2022/11/19 05:11:38;;;;;;;1.05;0.68;;;2.80;1.00;;;;;;5070167;28;20477;-72
2022/11/19 05:14:05;;;;;;;1.30;0.70;;;2.80;3.60;;;;;;5058452;28;20437;-73
2022/11/19 05:16:31;;;;;;;0.60;0.60;;;2.80;10.30;;;;;;5050500;28;20900;-72
2022/11/19 05:18:58;;;;;;;0.85;0.68;;;2.80;17.60;;;;;;5076935;28;20425;-72
2022/11/19 05:21:25;;;;;;;1.23;0.98;;;2.90;22.30;;;;;;5052279;28;20856;-71
2022/11/19 05:23:51;;;;;;;0.25;0.25;;;2.90;29.20;;;;;;5056170;28;20485;-72
2022/11/19 05:26:18;;;;;;;0.70;0.70;;;2.90;34.20;;;;;;5055564;28;20429;-72
2022/11/19 05:28:45;;;;;;;0.95;0.95;;;2.90;36.30;;;;;;5050298;28;20823;-72
2022/11/19 05:31:12;;;;;;;0.73;0.47;;;2.90;36.40;;;;;;5057731;28;20439;-72
2022/11/19 05:33:38;;;;;;;0.60;0.60;;;2.90;39.90;;;;;;5061939;28;20417;-72
2022/11/19 05:36:06;;;;;;;1.50;0.50;;;2.80;39.50;;;;;;5063103;28;20436;-72
2022/11/19 05:38:32;;;;;;;0.25;0.25;;;2.90;44.80;;;;;;5063765;28;20520;-72
2022/11/19 05:40:59;;;;;;;0.10;0.10;;;2.90;47.10;;;;;;5061402;28;20427;-72
2022/11/19 05:43:26;;;;;;;0.10;0.10;;;2.80;26.30;;;;;;5065438;28;20430;-72
2022/11/19 05:45:53;;;;;;;0.43;0.43;;;2.80;20.50;;;;;;5071193;28;20908;-72
2022/11/19 05:48:19;;;;;;;0.50;0.50;;;2.80;15.60;;;;;;5060741;28;20516;-72
2022/11/19 05:50:46;;;;;;;0.35;0.35;;;2.70;12.70;;;;;;5058803;28;20434;-73
2022/11/19 05:53:13;;;;;;;0.30;0.30;;;2.70;1.00;;;;;;5076938;28;20938;-72
2022/11/19 05:55:40;;;;;;;0.60;0.35;;;2.60;1.00;;;;;;5067167;28;20514;-72
2022/11/19 05:58:06;;;;;;;0.30;0.30;;;2.60;1.00;;;;;;5077106;28;20425;-72
2022/11/19 06:00:33;;;;;;;0.13;0.13;;;2.60;1.00;;;;;;5066638;28;20489;-72
2022/11/19 06:03:00;;;;;;;0.55;0.55;;;2.60;1.00;;;;;;5066636;28;20865;-72
2022/11/19 06:05:26;;;;;;;1.20;0.20;;;2.50;1.00;;;;;;5079466;28;20428;-72
2022/11/19 06:07:54;;;;;;;0.60;0.57;;;2.50;1.00;;;;;;5072838;28;20927;-72
2022/11/19 06:10:20;;;;;;;0.30;0.30;;;2.50;1.00;;;;;;5071224;28;20916;-72
2022/11/19 06:12:47;;;;;;;0.20;0.20;;;2.50;1.00;;;;;;5067862;28;20517;-72
2022/11/19 06:15:14;;;;;;;0.70;0.70;;;2.50;1.00;;;;;;5077341;28;20501;-72
2022/11/19 06:17:41;;;;;;;0.13;0.13;;;2.50;1.00;;;;;;5066911;28;20790;-72
2022/11/19 06:20:09;;;;;;;0.80;0.80;;;2.50;1.00;;;;;;5076012;28;20909;-72
2022/11/19 06:22:37;;;;;;;0.15;0.15;;;2.50;1.00;;;;;;5061661;28;20494;-72
2022/11/19 06:25:06;;;;;;;0.22;0.22;;;2.50;1.00;;;;;;5056038;28;20435;-72
2022/11/19 06:27:33;;;;;;;0.22;0.22;;;2.50;1.00;;;;;;5073632;28;20457;-73
2022/11/19 06:30:01;;;;;;;0.70;0.70;;;2.50;1.00;;;;;;5067120;28;20427;-72
2022/11/19 06:32:27;;;;;;;0.70;0.70;;;2.40;1.00;;;;;;5054602;28;20432;-72
2022/11/19 06:34:54;;;;;;;0.50;0.50;;;2.40;1.00;;;;;;5057909;28;20441;-72
2022/11/19 06:37:21;;;;;;;0.30;0.30;;;2.30;1.00;;;;;;5064208;28;20490;-72
2022/11/19 06:39:49;;;;;;;0.60;0.45;;;2.30;1.00;;;;;;5049261;28;20924;-72
2022/11/19 06:45:10;;;;;;;0.50;0.50;;;2.30;1.00;;;;;;5050294;28;21313;-70
2022/11/19 06:47:38;;;;;;;0.30;0.30;;;2.20;1.00;;;;;;5062510;28;20431;-70
2022/11/19 06:50:07;;;;;;;0.55;0.55;;;2.30;1.00;;;;;;5054055;28;20425;-70
2022/11/19 06:52:34;;;;;;;0.22;0.22;;;2.20;1.00;;;;;;5067061;28;20510;-70
2022/11/19 06:55:01;;;;;;;0.60;0.60;;;2.20;1.00;;;;;;5060583;28;20454;-70
2022/11/19 06:57:28;;;;;;;1.10;1.05;;;2.20;1.00;;;;;;5058672;28;20936;-70
2022/11/19 06:59:54;;;;;;;0.70;0.70;;;2.20;1.00;;;;;;5064758;28;20964;-69
2022/11/19 07:02:21;;;;;;;0.90;0.70;;;2.20;1.00;;;;;;5050980;28;20436;-69
2022/11/19 07:04:48;;;;;;;0.25;0.25;;;2.10;1.00;;;;;;5057697;28;20433;-70
2022/11/19 07:07:15;;;;;;;0.55;0.45;;;2.10;1.00;;;;;;5059381;28;20423;-70
2022/11/19 07:09:41;;;;;;;0.90;0.90;;;2.10;1.00;;;;;;5069407;28;20533;-70
2022/11/19 07:12:08;;;;;;;2.30;1.30;;;2.10;1.00;;;;;;5067847;28;20437;-69
2022/11/19 07:14:35;;;;;;;0.70;0.50;;;2.00;1.00;;;;;;5064579;28;21082;-68
2022/11/19 07:17:03;;;;;;;1.40;0.80;;;2.00;1.00;;;;;;5063293;28;20427;-67
2022/11/19 07:19:30;;;;;;;0.73;0.73;;;2.00;1.00;;;;;;5063940;28;20433;-69
2022/11/19 07:21:56;;;;;;;1.35;0.90;;;2.00;1.00;;;;;;5053744;28;20539;-70
2022/11/19 07:24:23;;;;;;;1.55;0.77;;;2.00;1.00;;;;;;5060943;28;20512;-70
2022/11/19 07:26:50;;;;;;;0.60;0.40;;;2.00;1.00;;;;;;5080800;28;20481;-69
2022/11/19 07:29:17;;;;;;;0.85;0.43;;;2.00;1.00;;;;;;5069048;28;20421;-70
2022/11/19 07:31:49;;;;;;;0.50;0.50;;;2.10;1.00;;;;;;5059696;28;20514;-70
2022/11/19 07:34:16;;;;;;;1.10;1.10;;;2.10;1.00;;;;;;5062523;28;20515;-70
2022/11/19 07:36:44;;;;;;;0.82;0.75;;;2.20;1.00;;;;;;5070782;28;20760;-70
2022/11/19 07:39:11;;;;;;;0.80;0.80;;;2.20;1.00;;;;;;5065329;28;20480;-70
2022/11/19 07:44:24;;;;;;;0.60;0.60;;;2.20;1.00;;;;;;5055812;28;20433;-70
2022/11/19 07:46:50;;;;;;;0.80;0.80;;;2.10;1.00;;;;;;5062876;28;20437;-70
2022/11/19 07:49:18;;;;;;;1.00;0.80;;;2.00;1.00;;;;;;5067542;28;20483;-70
2022/11/19 07:51:45;;;;;;;2.00;0.73;;;2.00;1.00;;;;;;5065734;28;20443;-70
2022/11/19 07:54:13;;;;;;;2.05;0.45;;;1.90;99.90;;;;;;5061242;28;20431;-70
2022/11/19 07:56:40;;;;;;;0.40;0.40;;;1.90;99.90;;;;;;5073682;28;20493;-70
2022/11/19 07:59:06;;;;;;;0.40;0.40;;;1.80;99.90;;;;;;5062513;28;20964;-69
2022/11/19 08:01:33;;;;;;;0.50;0.45;;;1.80;99.90;;;;;;5062314;28;20737;-70
2022/11/19 08:04:01;;;;;;;1.80;0.70;;;1.80;99.90;;;;;;5060818;28;20757;-70
2022/11/19 08:06:28;;;;;;;0.80;0.70;;;1.80;1.00;;;;;;5066408;28;20433;-70
2022/11/19 08:08:56;;;;;;;0.75;0.75;;;1.90;1.00;;;;;;5055319;28;20947;-70
2022/11/19 08:11:23;;;;;;;0.73;0.73;;;1.90;1.00;;;;;;5057078;28;21168;-70
2022/11/19 08:13:51;;;;;;;0.70;0.70;;;1.90;1.00;;;;;;5053163;28;20559;-70
2022/11/19 08:19:08;;;;;;;0.80;0.80;;;2.00;1.00;;;;;;5068806;28;20547;-70
2022/11/19 08:21:38;;;;;;;0.70;0.52;;;1.90;1.00;;;;;;5062099;28;20437;-70
2022/11/19 08:24:05;;;;;;;0.80;0.80;;;1.90;99.90;;;;;;5058588;28;20550;-70
2022/11/19 08:26:32;;;;;;;0.10;0.10;;;1.90;99.90;;;;;;5068586;28;20432;-70
2022/11/19 08:28:59;;;;;;;1.20;0.77;;;1.90;99.90;;;;;;5070246;28;20477;-70
2022/11/19 08:31:26;;;;;;;1.30;0.70;;;1.90;1.00;;;;;;5055888;28;20452;-69
2022/11/19 08:33:53;;;;;;;0.82;0.73;;;1.90;99.90;;;;;;5058625;28;20425;-69
2022/11/19 08:36:19;;;;;;;0.97;0.87;;;1.90;1.00;;;;;;5058763;28;20926;-69
2022/11/19 08:38:46;;;;;;;0.60;0.60;;;1.90;1.00;;;;;;5065816;28;20439;-69
2022/11/19 08:44:00;;;;;;;0.50;0.50;;;2.00;1.00;;;;;;5071213;28;20890;-69
2022/11/19 08:46:27;;;;;;;0.33;0.33;;;2.00;1.00;;;;;;5069889;28;20939;-69
2022/11/19 08:48:54;;;;;;;0.55;0.52;;;2.00;1.00;;;;;;5068301;28;20430;-69
2022/11/19 08:51:20;;;;;;;0.47;0.47;;;1.90;1.00;;;;;;5065111;28;20504;-69
2022/11/19 08:53:49;;;;;;;0.70;0.70;;;1.90;1.00;;;;;;5067509;28;20474;-69
2022/11/19 08:56:16;;;;;;;1.70;0.50;;;1.90;1.00;;;;;;5056921;28;20872;-69
2022/11/19 08:58:44;;;;;;;0.60;0.30;;;1.90;1.00;;;;;;5059912;28;20435;-69
2022/11/19 09:01:12;;;;;;;0.43;0.35;;;1.90;1.00;;;;;;5053862;28;20440;-69
2022/11/19 09:03:39;;;;;;;0.50;0.50;;;1.90;1.00;;;;;;5060253;28;20481;-69
2022/11/19 09:06:07;;;;;;;1.33;0.40;;;1.90;1.00;;;;;;5062785;28;20431;-69
2022/11/19 09:08:35;;;;;;;0.60;0.60;;;1.80;1.00;;;;;;5067832;28;20435;-69
2022/11/19 09:11:20;;;;;;;0.93;0.60;;;1.80;1.00;;;;;;5067937;28;20474;-69
2022/11/19 09:13:47;;;;;;;0.47;0.47;;;1.70;1.00;;;;;;5068622;28;20435;-69
2022/11/19 09:16:15;;;;;;;1.50;0.60;;;1.70;1.00;;;;;;5051901;28;20429;-69
2022/11/19 09:18:42;;;;;;;0.75;0.75;;;1.70;1.00;;;;;;5052910;28;20429;-68
2022/11/19 09:21:10;;;;;;;0.87;0.87;;;1.70;1.00;;;;;;5060088;28;20425;-69
2022/11/19 09:23:38;;;;;;;0.90;0.20;;;1.60;1.00;;;;;;5054940;28;20867;-68
2022/11/19 09:26:12;;;;;;;0.80;0.80;;;1.60;1.00;;;;;;5077058;28;20438;-69
2022/11/19 09:28:39;;;;;;;0.95;0.57;;;1.50;1.00;;;;;;5069616;28;20431;-68
2022/11/19 09:31:11;;;;;;;0.60;0.50;;;1.50;1.00;;;;;;5053600;28;20433;-69
2022/11/19 09:33:41;;;;;;;0.20;0.20;;;1.40;1.00;;;;;;5049732;28;20425;-69
2022/11/19 09:36:10;;;;;;;0.77;0.77;;;1.40;1.00;;;;;;5058172;28;20433;-69
2022/11/19 09:38:38;;;;;;;2.50;0.60;;;1.40;1.00;;;;;;5050503;28;20925;-69
2022/11/19 09:41:35;;;;;;;0.60;0.60;;;1.30;1.00;;;;;;5063989;28;20458;-69
2022/11/19 09:44:44;;;;;;;1.10;0.90;;;1.20;1.00;;;;;;5067789;28;20438;-69
2022/11/19 09:47:40;;;;;;;2.60;0.70;;;1.20;1.00;;;;;;5064770;28;20481;-69
2022/11/19 09:50:12;;;;;;;0.50;0.40;;;1.20;1.00;;;;;;5063582;28;20931;-69
2022/11/19 09:52:53;;;;;;;0.70;0.70;;;1.30;1.00;;;;;;5058881;28;20990;-69
2022/11/19 09:55:35;;;;;;;0.40;0.40;;;1.30;1.00;;;;;;5060902;28;20491;-69
2022/11/19 09:58:30;;;;;;;1.40;0.50;;;1.40;1.00;;;;;;5065032;28;20427;-69
2022/11/19 10:00:58;;;;;;;0.43;0.43;;;1.50;1.00;;;;;;5062685;28;20428;-69
2022/11/19 10:03:26;;;;;;;1.30;0.40;;;1.60;1.00;;;;;;5064308;28;20977;-69
2022/11/19 10:06:18;;;;;;;0.40;0.40;;;1.60;1.00;;;;;;5049791;28;20433;-69
2022/11/19 10:09:03;;;;;;;2.22;0.57;;;1.90;1.00;;;;;;5057657;28;20866;-70
2022/11/19 10:12:08;;;;;;;0.40;0.40;;;2.10;1.00;;;;;;5059278;28;20419;-69
2022/11/19 10:14:40;;;;;;;0.70;0.70;;;2.30;1.00;;;;;;5063254;28;20423;-69
2022/11/19 10:17:37;;;;;;;1.13;1.08;;;2.40;1.00;;;;;;5068143;28;20463;-69
2022/11/19 10:20:19;;;;;;;0.70;0.70;;;2.60;1.00;;;;;;5049161;28;20429;-69
2022/11/19 10:22:55;;;;;;;0.85;0.85;;;2.90;99.90;;;;;;5059796;28;20435;-69
2022/11/19 10:25:37;;;;;;;0.57;0.57;;;3.00;99.90;;;;;;5067117;28;20775;-69
2022/11/19 10:28:13;;;;;;;1.15;0.85;;;3.20;1.00;;;;;;5069539;28;20494;-69
2022/11/19 10:30:47;;;;;;;1.80;1.52;;;3.30;99.90;;;;;;5055125;28;20446;-69
2022/11/19 10:33:20;;;;;;;0.80;0.80;;;3.40;99.90;;;;;;5062731;28;20515;-69
2022/11/19 10:35:52;;;;;;;0.63;0.63;;;3.50;99.90;;;;;;5053590;28;20431;-69
2022/11/19 10:38:38;;;;;;;0.60;0.60;;;3.50;99.90;;;;;;5069386;28;20921;-69
2022/11/19 10:41:13;;;;;;;0.77;0.73;;;3.60;99.90;;;;;;5066270;28;20576;-69
2022/11/19 10:43:49;;;;;;;0.70;0.70;;;3.50;99.90;;;;;;5065425;28;20813;-69
2022/11/19 10:46:20;;;;;;;1.20;0.77;;;3.40;99.90;;;;;;5055062;28;20479;-69
2022/11/19 10:48:52;;;;;;;0.40;0.40;;;3.30;99.90;;;;;;5049576;28;20522;-69
2022/11/19 10:51:27;;;;;;;0.90;0.90;;;3.30;99.90;;;;;;5051392;28;20433;-69
2022/11/19 10:53:55;;;;;;;0.80;0.80;;;3.30;99.90;;;;;;5048502;28;21747;-69
2022/11/19 10:56:33;;;;;;;1.00;1.00;;;3.30;99.90;;;;;;5053349;28;20433;-69
2022/11/19 10:59:17;;;;;;;0.45;0.45;;;3.40;99.90;;;;;;5072459;28;20526;-69
2022/11/19 11:01:47;;;;;;;0.63;0.63;;;3.20;99.90;;;;;;5072694;28;20458;-69
2022/11/19 11:04:28;;;;;;;1.52;0.77;;;3.20;99.90;;;;;;5068954;28;21045;-69
2022/11/19 11:06:58;;;;;;;0.88;0.88;;;3.30;99.90;;;;;;5076427;28;20464;-69
2022/11/19 11:09:42;;;;;;;0.93;0.93;;;3.30;99.90;;;;;;5074321;28;20428;-69
2022/11/19 11:15:17;;;;;;;0.52;0.52;;;3.20;99.90;;;;;;5062237;28;20430;-69
2022/11/19 11:17:46;;;;;;;1.23;0.60;;;3.30;99.90;;;;;;5073602;28;20425;-69
2022/11/19 11:20:16;;;;;;;1.02;0.93;;;3.20;99.90;;;;;;5064840;28;20842;-69
2022/11/19 11:22:48;;;;;;;1.67;1.08;;;3.20;99.90;;;;;;5072610;28;20427;-69
2022/11/19 11:25:22;;;;;;;0.95;0.90;;;3.30;99.90;;;;;;5064460;28;20463;-69
2022/11/19 11:28:17;;;;;;;0.68;0.68;;;3.20;99.90;;;;;;5066076;28;20424;-69
2022/11/19 11:30:55;;;;;;;0.73;0.73;;;3.20;99.90;;;;;;5059008;28;20487;-69
2022/11/19 11:33:31;;;;;;;3.45;0.88;;;3.20;99.90;;;;;;5064189;28;20919;-69
2022/11/19 11:36:11;;;;;;;2.10;0.70;;;3.10;99.90;;;;;;5062891;28;20433;-69
2022/11/19 11:38:44;;;;;;;0.90;0.80;;;3.00;99.90;;;;;;5056520;28;20798;-69
2022/11/19 11:41:14;;;;;;;0.55;0.55;;;3.10;99.90;;;;;;5057533;28;20512;-69
2022/11/19 11:44:14;;;;;;;0.70;0.70;;;3.00;99.90;;;;;;5059931;28;20424;-69
2022/11/19 11:46:54;;;;;;;0.52;0.52;;;2.90;99.90;;;;;;5063785;28;20433;-69
2022/11/19 11:49:38;;;;;;;0.70;0.70;;;2.70;99.90;;;;;;5067509;28;20466;-68
2022/11/19 11:52:15;;;;;;;0.80;0.63;;;2.80;99.90;;;;;;5055304;28;20435;-68
2022/11/19 11:55:24;;;;;;;1.42;0.60;;;2.80;99.90;;;;;;5060693;28;20777;-68
2022/11/19 11:58:01;;;;;;;1.08;1.08;;;2.80;99.90;;;;;;5055907;28;20432;-68
2022/11/19 12:00:33;;;;;;;0.73;0.73;;;2.90;99.90;;;;;;5059855;28;20786;-68
2022/11/19 12:03:02;;;;;;;0.90;0.90;;;3.00;99.90;;;;;;5059245;28;20442;-69
2022/11/19 12:05:38;;;;;;;1.42;1.10;;;3.10;99.90;;;;;;5058039;28;20777;-68
2022/11/19 12:08:12;;;;;;;0.90;0.90;;;3.00;99.90;;;;;;5059986;28;21316;-68
2022/11/19 12:10:41;;;;;;;0.40;0.40;;;2.90;99.90;;;;;;5061446;28;20438;-68
2022/11/19 12:13:44;;;;;;;1.55;1.30;;;2.90;99.90;;;;;;5062131;28;20987;-68
2022/11/19 12:16:20;;;;;;;0.90;0.70;;;2.80;99.90;;;;;;5069029;28;20435;-69
2022/11/19 12:19:18;;;;;;;0.82;0.82;;;2.90;99.90;;;;;;5056898;28;20429;-69
2022/11/19 12:22:11;;;;;;;1.33;1.23;;;3.00;99.90;;;;;;5063004;28;20516;-69
2022/11/19 12:24:38;;;;;;;1.55;0.85;;;3.00;99.90;;;;;;5061302;28;20437;-69
2022/11/19 12:27:14;;;;;;;2.00;0.93;;;3.10;99.90;;;;;;5067937;28;20475;-69
2022/11/19 12:29:56;;;;;;;1.10;1.08;;;3.20;99.90;;;;;;5055418;28;20436;-68
2022/11/19 12:32:45;;;;;;;1.20;1.10;;;3.30;99.90;;;;;;5058021;28;20434;-69
2022/11/19 12:35:30;;;;;;;1.60;1.23;;;3.40;99.90;;;;;;5061361;28;20431;-69
2022/11/19 12:38:25;;;;;;;1.27;1.27;;;3.50;99.90;;;;;;5062465;28;20438;-68
2022/11/19 12:41:05;;;;;;;1.27;1.27;;;3.30;99.90;;;;;;5061552;28;20443;-69
2022/11/19 12:43:56;;;;;;;1.35;1.25;;;3.20;99.90;;;;;;5060738;28;20489;-69
2022/11/19 12:47:14;;;;;;;1.20;0.98;;;3.20;99.90;;;;;;5065525;28;20431;-69
2022/11/19 12:50:10;;;;;;;1.27;1.13;;;3.10;99.90;;;;;;5041439;28;21272;-69
2022/11/19 12:53:30;;;;;;;0.83;0.83;;;3.10;99.90;;;;;;5047171;28;20421;-69
2022/11/19 12:56:25;;;;;;;1.10;1.10;;;3.00;99.90;;;;;;4986351;28;20422;-68
2022/11/19 12:58:57;;;;;;;1.15;0.98;;;2.90;99.90;;;;;;4983759;28;20430;-68
2022/11/19 13:01:29;;;;;;;1.67;1.40;;;2.90;99.90;;;;;;4983176;28;20892;-69
2022/11/19 13:04:22;;;;;;;1.40;1.23;;;2.90;99.90;;;;;;4984180;28;20442;-69
2022/11/19 13:06:57;;;;;;;1.10;0.68;;;2.90;99.90;;;;;;4982738;28;20464;-70
2022/11/19 13:09:24;;;;;;;1.60;1.50;;;2.90;99.90;;;;;;4983712;28;20445;-69
2022/11/19 13:12:06;;;;;;;1.80;1.23;;;2.90;99.90;;;;;;4984080;28;20438;-69
2022/11/19 13:14:43;;;;;;;1.60;1.20;;;2.90;99.90;;;;;;4992408;28;20471;-69
2022/11/19 13:17:28;;;;;;;1.35;1.27;;;2.80;99.90;;;;;;4985884;28;20457;-69
2022/11/19 13:20:03;;;;;;;1.70;1.60;;;2.80;99.90;;;;;;4983020;28;20448;-69
2022/11/19 13:22:42;;;;;;;1.80;1.70;;;2.80;99.90;;;;;;4983128;28;21027;-69
2022/11/19 13:25:16;;;;;;;1.27;1.02;;;2.70;99.90;;;;;;4996648;28;20440;-69
2022/11/19 13:27:45;;;;;;;1.25;1.15;;;2.70;99.90;;;;;;5021325;28;20435;-69
2022/11/19 13:30:28;;;;;;;1.92;1.70;;;2.70;99.90;;;;;;5022323;28;21030;-69
2022/11/19 13:33:17;;;;;;;5.00;2.45;;;2.60;99.90;;;;;;5065768;28;20434;-69
2022/11/19 13:36:02;;;;;;;1.55;1.45;;;2.50;99.90;;;;;;5056309;28;20819;-69
2022/11/19 13:38:47;;;;;;;1.33;1.23;;;2.50;99.90;;;;;;5069545;28;20438;-70
2022/11/19 13:41:23;;;;;;;1.83;1.73;;;2.50;99.90;;;;;;5067805;28;20442;-69
2022/11/19 13:46:49;;;;;;;1.45;1.35;;;2.50;99.90;;;;;;5056983;28;20432;-68
2022/11/19 13:49:41;;;;;;;0.80;0.80;;;2.50;99.90;;;;;;5052812;28;20427;-68
2022/11/19 13:52:18;;;;;;;1.25;1.15;;;2.40;99.90;;;;;;5054859;28;20446;-69
2022/11/19 13:54:45;;;;;;;1.00;1.00;;;2.40;99.90;;;;;;5060416;28;20495;-68
2022/11/19 13:57:26;;;;;;;1.40;1.35;;;2.40;99.90;;;;;;5060548;28;20461;-69
2022/11/19 14:00:07;;;;;;;2.03;1.33;;;2.40;99.90;;;;;;5053900;28;20441;-68
2022/11/19 14:02:57;;;;;;;1.38;1.10;;;2.40;99.90;;;;;;5061869;28;20442;-68